Time;durP1;ratioP1;P1;durP2;ratioP2;P2;SDS_P1;SDS_P2;PMS_P1;PMS_P2;Temp;Humidity;BMP_temperature;BMP_pressure;BME280_temperature;BME280_humidity;BME280_pressure;Samples;Min_cycle;Max_cycle;Signal;HPM_P1;HPM_P2
2023/10/20 00:01:12;;;;;;;13.10;6.88;;;14.70;82.40;;;;;;4806267;29;20046;-84
2023/10/20 00:03:39;;;;;;;13.82;7.03;;;14.70;82.40;;;;;;4807220;29;20046;-84
2023/10/20 00:06:06;;;;;;;15.68;7.72;;;14.70;82.40;;;;;;4822194;29;20057;-85
2023/10/20 00:08:33;;;;;;;12.53;7.20;;;14.70;82.50;;;;;;4806513;29;20065;-84
2023/10/20 00:11:04;;;;;;;12.32;7.13;;;14.70;82.60;;;;;;4807297;29;20085;-84
2023/10/20 00:13:32;;;;;;;15.88;7.22;;;14.70;82.60;;;;;;4821479;29;20043;-84
2023/10/20 00:15:59;;;;;;;13.55;7.15;;;14.70;82.70;;;;;;4807248;29;20038;-85
2023/10/20 00:18:27;;;;;;;13.35;7.85;;;14.80;82.50;;;;;;4806179;29;20134;-85
2023/10/20 00:20:54;;;;;;;12.80;7.20;;;14.80;82.50;;;;;;4814363;29;20091;-84
2023/10/20 00:23:20;;;;;;;13.77;8.07;;;14.80;82.50;;;;;;4822479;29;20562;-84
2023/10/20 00:25:48;;;;;;;13.75;7.70;;;14.80;82.50;;;;;;4822104;29;20054;-85
2023/10/20 00:28:15;;;;;;;14.75;8.55;;;14.90;82.30;;;;;;4822294;29;20061;-85
2023/10/20 00:30:42;;;;;;;13.75;7.55;;;14.90;82.30;;;;;;4812767;29;20047;-85
2023/10/20 00:33:09;;;;;;;13.77;8.47;;;14.90;82.40;;;;;;4807196;29;20402;-85
2023/10/20 00:35:37;;;;;;;15.18;8.38;;;14.90;82.50;;;;;;4805673;29;20516;-84
2023/10/20 00:38:04;;;;;;;13.73;8.65;;;14.90;82.40;;;;;;4806958;29;20054;-85
2023/10/20 00:40:31;;;;;;;13.82;7.65;;;14.80;82.60;;;;;;4807070;29;20046;-85
2023/10/20 00:42:58;;;;;;;15.57;7.90;;;14.90;82.60;;;;;;4821810;29;20133;-85
2023/10/20 00:45:26;;;;;;;13.27;8.17;;;14.90;82.70;;;;;;4814245;29;20147;-84
2023/10/20 00:47:53;;;;;;;11.55;7.10;;;14.90;82.80;;;;;;4822055;29;20056;-84
2023/10/20 00:50:20;;;;;;;14.68;8.43;;;14.90;82.70;;;;;;4824340;29;20422;-85
2023/10/20 00:52:49;;;;;;;14.70;7.97;;;14.90;82.70;;;;;;4810436;29;20520;-85
2023/10/20 00:55:19;;;;;;;14.20;8.13;;;14.90;82.70;;;;;;4825423;29;20102;-84
2023/10/20 00:57:46;;;;;;;13.40;7.43;;;14.90;82.80;;;;;;4810927;29;20038;-85
2023/10/20 01:00:15;;;;;;;13.75;7.80;;;15.00;82.80;;;;;;4817921;29;20063;-85
2023/10/20 01:02:42;;;;;;;14.25;8.50;;;15.00;82.80;;;;;;4836405;29;20109;-85
2023/10/20 01:05:10;;;;;;;13.70;8.38;;;15.00;82.70;;;;;;4809147;29;20145;-85
2023/10/20 01:07:37;;;;;;;16.58;8.85;;;15.00;82.60;;;;;;4825276;29;20046;-85
2023/10/20 01:10:05;;;;;;;14.03;8.63;;;15.00;82.60;;;;;;4824388;29;20486;-84
2023/10/20 01:12:33;;;;;;;15.52;8.25;;;15.00;82.60;;;;;;4825385;29;20455;-84
2023/10/20 01:15:04;;;;;;;14.43;8.48;;;15.00;82.60;;;;;;4826149;29;20103;-85
2023/10/20 01:17:32;;;;;;;15.50;8.63;;;15.10;82.50;;;;;;4807540;29;20046;-85
2023/10/20 01:20:07;;;;;;;15.85;8.50;;;15.10;82.60;;;;;;4809713;29;20039;-85
2023/10/20 01:22:35;;;;;;;14.17;8.23;;;15.10;82.50;;;;;;4822763;29;20038;-85
2023/10/20 01:25:04;;;;;;;15.65;8.45;;;15.10;82.50;;;;;;4825177;29;20047;-85
2023/10/20 01:27:31;;;;;;;18.20;8.95;;;15.10;82.40;;;;;;4815993;29;20149;-85
2023/10/20 01:29:58;;;;;;;17.98;9.38;;;15.10;82.40;;;;;;4809923;29;20455;-84
2023/10/20 01:32:25;;;;;;;15.32;9.20;;;15.10;82.40;;;;;;4824355;29;20050;-85
2023/10/20 01:34:52;;;;;;;17.60;9.30;;;15.10;82.50;;;;;;4824871;29;20117;-85
2023/10/20 01:37:19;;;;;;;17.75;8.98;;;15.10;82.40;;;;;;4809975;29;20042;-84
2023/10/20 01:39:47;;;;;;;14.73;9.50;;;15.10;82.60;;;;;;4810045;29;20042;-84
2023/10/20 01:42:14;;;;;;;17.42;9.30;;;15.20;82.50;;;;;;4809028;29;20046;-85
2023/10/20 01:44:41;;;;;;;16.52;9.07;;;15.20;82.40;;;;;;4821320;29;20070;-85
2023/10/20 01:47:09;;;;;;;15.63;9.10;;;15.20;82.30;;;;;;4824838;29;20054;-84
2023/10/20 01:49:36;;;;;;;19.15;9.00;;;15.20;82.40;;;;;;4825499;29;20042;-85
2023/10/20 01:52:03;;;;;;;18.77;9.57;;;15.10;82.30;;;;;;4824701;29;20536;-85
2023/10/20 01:54:30;;;;;;;14.07;9.13;;;15.20;82.30;;;;;;4824582;29;20047;-85
2023/10/20 01:56:58;;;;;;;15.18;9.73;;;15.20;82.20;;;;;;4809644;29;20050;-84
2023/10/20 01:59:25;;;;;;;16.10;9.07;;;15.30;82.10;;;;;;4824405;29;20098;-84
2023/10/20 02:01:52;;;;;;;16.52;9.27;;;15.30;82.10;;;;;;4822728;29;20126;-84
2023/10/20 02:04:20;;;;;;;16.60;8.82;;;15.30;82.20;;;;;;4809603;29;20085;-85
2023/10/20 02:06:47;;;;;;;15.73;8.95;;;15.40;82.00;;;;;;4824454;29;20131;-85
2023/10/20 02:09:14;;;;;;;15.15;9.68;;;15.30;82.00;;;;;;4822763;29;20039;-85
2023/10/20 02:11:41;;;;;;;15.03;9.13;;;15.40;81.80;;;;;;4814559;29;20049;-84
2023/10/20 02:14:08;;;;;;;15.30;8.98;;;15.40;81.70;;;;;;4824398;29;20042;-84
2023/10/20 02:16:35;;;;;;;16.70;9.93;;;15.40;81.80;;;;;;4809199;29;20099;-85
2023/10/20 02:19:04;;;;;;;14.35;9.63;;;15.40;82.00;;;;;;4809036;29;20043;-84
2023/10/20 02:21:32;;;;;;;13.88;8.80;;;15.30;82.00;;;;;;4815474;29;20039;-85
2023/10/20 02:23:59;;;;;;;15.37;9.67;;;15.30;82.10;;;;;;4809202;29;20042;-84
2023/10/20 02:26:26;;;;;;;16.17;9.38;;;15.40;82.00;;;;;;4822726;29;20046;-85
2023/10/20 02:28:53;;;;;;;16.08;8.82;;;15.40;81.90;;;;;;4823814;29;20137;-85
2023/10/20 02:31:20;;;;;;;16.45;10.00;;;15.40;81.80;;;;;;4808922;29;20058;-84
2023/10/20 02:33:47;;;;;;;15.50;9.55;;;15.50;81.80;;;;;;4808201;29;20061;-84
2023/10/20 02:36:21;;;;;;;16.03;8.37;;;15.50;81.70;;;;;;4808646;29;20043;-84
2023/10/20 02:38:54;;;;;;;19.10;9.52;;;15.50;81.80;;;;;;4809018;29;20049;-85
2023/10/20 02:41:21;;;;;;;15.50;8.20;;;15.40;81.80;;;;;;4823930;29;20061;-84
2023/10/20 02:43:49;;;;;;;17.20;8.40;;;15.40;81.80;;;;;;4823608;29;20059;-84
2023/10/20 02:46:16;;;;;;;15.32;8.57;;;15.40;81.80;;;;;;4808384;29;20055;-85
2023/10/20 02:48:43;;;;;;;17.77;9.53;;;15.50;81.70;;;;;;4811753;29;20471;-84
2023/10/20 02:51:12;;;;;;;13.05;8.07;;;15.50;81.60;;;;;;4808581;29;20081;-84
2023/10/20 02:53:40;;;;;;;14.30;8.05;;;15.50;81.50;;;;;;4823586;29;20658;-84
2023/10/20 02:56:15;;;;;;;18.20;9.43;;;15.50;81.50;;;;;;4823599;29;20057;-85
2023/10/20 02:58:43;;;;;;;16.15;8.57;;;15.50;81.50;;;;;;4805285;29;20402;-85
2023/10/20 03:01:13;;;;;;;17.73;8.70;;;15.50;81.40;;;;;;4808307;29;20051;-85
2023/10/20 03:03:40;;;;;;;14.77;8.80;;;15.60;81.20;;;;;;4823418;29;20089;-86
2023/10/20 03:06:08;;;;;;;15.05;8.40;;;15.60;81.30;;;;;;4816281;29;20137;-85
2023/10/20 03:08:37;;;;;;;13.73;8.55;;;15.60;81.20;;;;;;4808487;29;20054;-85
2023/10/20 03:11:06;;;;;;;17.02;8.57;;;15.70;81.10;;;;;;4812753;29;20516;-85
2023/10/20 03:13:34;;;;;;;13.43;8.33;;;15.70;81.00;;;;;;4822534;29;20051;-85
2023/10/20 03:16:01;;;;;;;14.52;7.80;;;15.80;81.00;;;;;;4811983;29;20405;-85
2023/10/20 03:18:28;;;;;;;15.90;8.55;;;15.80;81.10;;;;;;4822323;29;20046;-86
2023/10/20 03:21:00;;;;;;;13.85;8.13;;;15.80;81.10;;;;;;4823443;29;20048;-85
2023/10/20 03:23:28;;;;;;;15.13;8.05;;;15.80;81.20;;;;;;4822099;29;20039;-85
2023/10/20 03:25:55;;;;;;;13.50;7.83;;;15.80;81.20;;;;;;4815016;29;20042;-85
2023/10/20 03:28:22;;;;;;;14.38;8.57;;;15.70;81.30;;;;;;4813299;29;20494;-85
2023/10/20 03:30:50;;;;;;;15.88;7.43;;;15.80;81.50;;;;;;4823169;29;20046;-85
2023/10/20 03:33:18;;;;;;;16.05;8.30;;;15.80;81.50;;;;;;4823367;29;20065;-85
2023/10/20 03:35:46;;;;;;;18.60;8.90;;;15.70;81.60;;;;;;4823065;29;20577;-85
2023/10/20 03:38:14;;;;;;;19.03;8.47;;;15.80;81.60;;;;;;4822967;29;20050;-85
2023/10/20 03:40:41;;;;;;;14.27;7.45;;;15.70;81.60;;;;;;4823037;29;20576;-86
2023/10/20 03:43:10;;;;;;;15.43;7.78;;;15.80;81.60;;;;;;4807986;29;20047;-85
2023/10/20 03:45:41;;;;;;;13.02;7.82;;;15.70;81.70;;;;;;4821343;29;20046;-85
2023/10/20 03:48:09;;;;;;;14.60;8.43;;;15.70;81.70;;;;;;4822531;29;20058;-86
2023/10/20 03:50:41;;;;;;;14.73;8.93;;;15.70;81.70;;;;;;4805522;29;20046;-85
2023/10/20 03:53:12;;;;;;;16.15;8.25;;;15.70;81.70;;;;;;4806539;29;20081;-86
2023/10/20 03:55:39;;;;;;;15.38;8.20;;;15.60;81.70;;;;;;4807090;29;20438;-85
2023/10/20 03:58:06;;;;;;;14.35;7.85;;;15.60;81.70;;;;;;4822845;29;20042;-89
2023/10/20 04:00:35;;;;;;;12.65;8.40;;;15.60;81.70;;;;;;4822987;29;20057;-88
2023/10/20 04:03:03;;;;;;;13.63;8.03;;;15.60;81.80;;;;;;4822557;29;20047;-88
2023/10/20 04:05:31;;;;;;;14.30;7.65;;;15.70;81.80;;;;;;4823415;29;20061;-88
2023/10/20 04:07:58;;;;;;;19.17;8.13;;;15.70;81.80;;;;;;4822173;29;20054;-86
2023/10/20 04:10:26;;;;;;;15.00;7.88;;;15.60;81.70;;;;;;4807129;29;20529;-87
2023/10/20 04:12:53;;;;;;;14.38;7.95;;;15.60;81.80;;;;;;4823896;29;20054;-88
2023/10/20 04:15:25;;;;;;;15.33;8.17;;;15.60;81.90;;;;;;4808155;29;20053;-87
2023/10/20 04:17:54;;;;;;;15.45;7.97;;;15.60;81.90;;;;;;4808865;29;20046;-87
2023/10/20 04:20:23;;;;;;;15.85;8.20;;;15.60;81.80;;;;;;4805185;29;20091;-88
2023/10/20 04:22:51;;;;;;;16.02;7.90;;;15.60;81.90;;;;;;4822651;29;20145;-88
2023/10/20 04:25:22;;;;;;;14.70;7.47;;;15.70;81.80;;;;;;4805590;29;20047;-87
2023/10/20 04:58:35;;;;;;;16.38;7.15;;;15.70;82.20;;;;;;4822365;29;20066;-87
2023/10/20 05:01:19;;;;;;;13.70;6.60;;;15.70;82.10;;;;;;4818830;29;20043;-89
2023/10/20 05:03:46;;;;;;;19.23;7.57;;;15.80;82.00;;;;;;4819070;29;20074;-88
2023/10/20 05:06:23;;;;;;;10.10;5.70;;;15.80;81.90;;;;;;4820660;29;20050;-88
2023/10/20 05:08:51;;;;;;;11.87;6.50;;;15.80;81.80;;;;;;4807379;29;20051;-88
2023/10/20 05:11:19;;;;;;;14.48;5.75;;;15.80;81.90;;;;;;4806477;29;20046;-87
2023/10/20 05:13:46;;;;;;;12.00;5.72;;;15.90;81.90;;;;;;4822111;29;20054;-88
2023/10/20 05:16:13;;;;;;;12.57;6.03;;;15.90;81.90;;;;;;4807069;29;20497;-88
2023/10/20 05:18:41;;;;;;;14.55;5.95;;;16.00;81.90;;;;;;4821744;29;20133;-87
2023/10/20 05:21:09;;;;;;;11.03;6.63;;;15.90;81.80;;;;;;4807470;29;20525;-84
2023/10/20 05:23:36;;;;;;;12.65;5.80;;;15.90;81.70;;;;;;4806006;29;20554;-87
2023/10/20 05:26:03;;;;;;;12.50;6.47;;;15.90;81.90;;;;;;4805379;29;20051;-87
2023/10/20 05:28:31;;;;;;;12.30;6.22;;;15.90;81.90;;;;;;4822071;29;20046;-87
2023/10/20 05:30:58;;;;;;;11.65;6.10;;;16.00;81.90;;;;;;4806921;29;20107;-87
2023/10/20 05:33:26;;;;;;;11.67;6.00;;;16.00;81.80;;;;;;4821999;29;20066;-87
2023/10/20 05:36:00;;;;;;;16.15;7.05;;;16.00;81.70;;;;;;4823180;29;20106;-86
2023/10/20 05:38:28;;;;;;;12.27;5.82;;;16.00;81.60;;;;;;4809818;29;20129;-87
2023/10/20 05:40:59;;;;;;;11.55;5.80;;;16.00;81.70;;;;;;4826677;29;20532;-87
2023/10/20 05:43:27;;;;;;;11.65;5.68;;;16.00;81.70;;;;;;4809627;29;20133;-87
2023/10/20 05:45:54;;;;;;;13.23;6.53;;;16.10;81.60;;;;;;4810657;29;20049;-87
2023/10/20 05:48:21;;;;;;;14.32;5.72;;;16.10;81.50;;;;;;4825264;29;20084;-87
2023/10/20 05:50:57;;;;;;;15.60;6.63;;;16.10;81.50;;;;;;4809945;29;20050;-87
2023/10/20 05:53:25;;;;;;;11.02;5.85;;;16.10;81.60;;;;;;4823044;29;20058;-86
2023/10/20 05:55:52;;;;;;;13.35;6.03;;;16.10;81.70;;;;;;4824820;29;20145;-87
2023/10/20 05:58:20;;;;;;;14.67;6.87;;;16.10;82.00;;;;;;4809973;29;20046;-87
2023/10/20 06:00:48;;;;;;;16.23;6.78;;;16.10;82.20;;;;;;4824842;29;20042;-86
2023/10/20 06:03:29;;;;;;;14.48;6.68;;;16.10;82.20;;;;;;4824189;29;20532;-86
2023/10/20 06:06:01;;;;;;;14.35;7.20;;;16.20;82.00;;;;;;4807492;29;20069;-86
2023/10/20 06:08:29;;;;;;;14.68;7.35;;;16.30;81.90;;;;;;4808129;29;20061;-88
2023/10/20 06:11:02;;;;;;;13.07;6.13;;;16.30;81.70;;;;;;4808882;29;20080;-87
2023/10/20 06:13:32;;;;;;;13.43;6.70;;;16.30;81.50;;;;;;4824867;29;20061;-86
2023/10/20 06:16:08;;;;;;;15.38;5.47;;;16.40;81.40;;;;;;4810037;29;20046;-87
2023/10/20 06:18:40;;;;;;;11.73;5.53;;;16.50;81.30;;;;;;4824458;29;20050;-87
2023/10/20 06:21:16;;;;;;;11.02;5.55;;;16.50;81.20;;;;;;4823901;29;20510;-86
2023/10/20 06:23:44;;;;;;;14.07;5.47;;;16.50;81.10;;;;;;4809540;29;20046;-87
2023/10/20 06:26:12;;;;;;;12.02;5.68;;;16.60;80.70;;;;;;4824479;29;20145;-87
2023/10/20 06:28:40;;;;;;;12.82;5.40;;;16.60;80.70;;;;;;4824523;29;20046;-87
2023/10/20 06:34:13;;;;;;;12.60;5.80;;;16.80;80.40;;;;;;4804569;29;20056;-87
2023/10/20 06:36:47;;;;;;;12.93;5.57;;;16.90;80.50;;;;;;4812820;29;20131;-87
2023/10/20 06:39:15;;;;;;;11.52;5.30;;;17.00;80.30;;;;;;4824638;29;20082;-87
2023/10/20 06:41:42;;;;;;;12.60;5.18;;;17.00;80.20;;;;;;4809267;29;20099;-87
2023/10/20 06:44:18;;;;;;;13.52;5.10;;;17.00;80.10;;;;;;4824342;29;20110;-86
2023/10/20 06:46:45;;;;;;;10.25;4.70;;;17.10;79.90;;;;;;4821570;29;20413;-87
2023/10/20 06:49:18;;;;;;;12.50;4.83;;;17.10;79.90;;;;;;4823615;29;20050;-87
2023/10/20 06:51:46;;;;;;;11.60;4.93;;;17.10;79.50;;;;;;4822195;29;20042;-87
2023/10/20 06:54:13;;;;;;;11.68;4.63;;;17.20;79.50;;;;;;4824008;29;20405;-87
2023/10/20 06:56:40;;;;;;;10.93;4.53;;;17.30;79.60;;;;;;4824416;29;20493;-86
2023/10/20 06:59:12;;;;;;;10.65;4.53;;;17.30;79.50;;;;;;4824429;29;20137;-87
2023/10/20 07:01:43;;;;;;;11.77;4.23;;;17.30;79.30;;;;;;4824109;29;20064;-87
2023/10/20 07:04:12;;;;;;;13.05;4.50;;;17.40;79.40;;;;;;4809031;29;20110;-87
2023/10/20 07:06:40;;;;;;;14.43;5.22;;;17.40;79.10;;;;;;4823999;29;20054;-87
2023/10/20 07:09:13;;;;;;;13.30;4.53;;;17.50;79.00;;;;;;4809256;29;20145;-86
2023/10/20 07:11:42;;;;;;;10.90;4.60;;;17.50;78.70;;;;;;4808895;29;21201;-87
2023/10/20 07:14:10;;;;;;;12.23;4.70;;;17.50;78.80;;;;;;4798184;29;20058;-87
2023/10/20 07:16:37;;;;;;;12.25;4.65;;;17.50;78.80;;;;;;4823856;29;20046;-87
2023/10/20 07:19:06;;;;;;;11.50;4.95;;;17.60;78.70;;;;;;4823713;29;20047;-87
2023/10/20 07:21:34;;;;;;;12.50;5.65;;;17.70;78.10;;;;;;4807833;29;20050;-87
2023/10/20 07:24:03;;;;;;;11.23;5.00;;;17.70;78.40;;;;;;4820006;29;20455;-87
2023/10/20 07:26:30;;;;;;;10.40;5.30;;;17.80;78.10;;;;;;4803524;29;20046;-87
2023/10/20 07:28:57;;;;;;;11.95;5.05;;;17.90;77.90;;;;;;4823612;29;20501;-87
2023/10/20 07:31:26;;;;;;;12.88;5.25;;;17.90;77.70;;;;;;4825182;29;20117;-87
2023/10/20 07:33:53;;;;;;;11.45;5.07;;;17.90;77.50;;;;;;4823614;29;20061;-86
2023/10/20 07:36:21;;;;;;;10.63;5.43;;;18.00;77.80;;;;;;4808457;29;20043;-87
2023/10/20 07:38:48;;;;;;;13.47;5.80;;;18.00;77.80;;;;;;4815976;29;20039;-87
2023/10/20 07:41:15;;;;;;;12.32;5.40;;;18.00;77.40;;;;;;4806156;29;20051;-87
2023/10/20 07:43:42;;;;;;;10.60;4.63;;;18.10;77.80;;;;;;4823510;29;20042;-87
2023/10/20 07:46:17;;;;;;;10.63;5.22;;;18.10;77.20;;;;;;4823266;29;20058;-87
2023/10/20 07:48:44;;;;;;;10.50;4.55;;;18.20;77.40;;;;;;4823676;29;20054;-87
2023/10/20 07:51:11;;;;;;;13.00;4.97;;;18.10;76.90;;;;;;4808255;29;20452;-87
2023/10/20 07:53:39;;;;;;;12.63;4.82;;;18.10;77.00;;;;;;4823704;29;20506;-87
2023/10/20 07:56:06;;;;;;;10.70;4.85;;;18.10;77.00;;;;;;4806162;29;20093;-87
2023/10/20 07:58:33;;;;;;;11.38;5.03;;;18.10;76.90;;;;;;4823403;29;20048;-87
2023/10/20 08:01:03;;;;;;;11.55;6.07;;;18.20;77.00;;;;;;4812033;29;20047;-87
2023/10/20 08:03:30;;;;;;;11.67;4.70;;;18.30;77.20;;;;;;4823221;29;20081;-87
2023/10/20 08:06:02;;;;;;;11.88;5.50;;;18.30;76.80;;;;;;4822725;29;20054;-87
2023/10/20 08:08:30;;;;;;;11.50;5.90;;;18.40;76.80;;;;;;4817736;29;20142;-87
2023/10/20 08:10:59;;;;;;;12.40;5.13;;;18.40;76.80;;;;;;4818179;29;20141;-87
2023/10/20 08:13:26;;;;;;;11.95;5.60;;;18.40;76.80;;;;;;4819317;29;20046;-87
2023/10/20 08:15:53;;;;;;;13.20;5.30;;;18.50;76.60;;;;;;4823559;29;20051;-87
2023/10/20 08:18:20;;;;;;;11.27;5.45;;;18.60;76.70;;;;;;4823370;29;20469;-87
2023/10/20 08:20:47;;;;;;;13.95;5.05;;;18.50;76.60;;;;;;4807311;29;20050;-87
2023/10/20 08:23:15;;;;;;;15.00;5.05;;;18.60;76.10;;;;;;4822976;29;20578;-87
2023/10/20 08:25:42;;;;;;;12.23;5.05;;;18.60;76.00;;;;;;4807660;29;20073;-88
2023/10/20 08:28:09;;;;;;;12.23;4.70;;;18.60;75.70;;;;;;4806439;29;20050;-87
2023/10/20 08:30:37;;;;;;;10.00;5.18;;;18.60;76.00;;;;;;4823165;29;20053;-87
2023/10/20 08:33:05;;;;;;;12.77;4.70;;;18.60;75.80;;;;;;4807590;29;20082;-87
2023/10/20 08:35:33;;;;;;;14.80;4.53;;;18.60;75.60;;;;;;4823081;29;20050;-87
2023/10/20 08:38:00;;;;;;;12.32;5.10;;;18.70;75.60;;;;;;4807598;29;20042;-87
2023/10/20 08:40:33;;;;;;;12.57;5.30;;;18.80;75.60;;;;;;4823070;29;20497;-87
2023/10/20 08:43:16;;;;;;;10.95;5.03;;;18.80;75.10;;;;;;4808796;29;20497;-87
2023/10/20 08:45:44;;;;;;;10.95;5.03;;;18.80;75.00;;;;;;4807812;29;20051;-87
2023/10/20 08:48:11;;;;;;;11.88;4.10;;;18.90;75.20;;;;;;4822163;29;20054;-87
2023/10/20 08:50:40;;;;;;;13.77;5.32;;;18.80;75.00;;;;;;4807635;29;20073;-86
2023/10/20 08:53:08;;;;;;;11.67;5.10;;;18.90;75.20;;;;;;4822438;29;20062;-88
2023/10/20 08:55:35;;;;;;;9.15;4.50;;;18.90;74.90;;;;;;4822643;29;20054;-87
2023/10/20 08:58:04;;;;;;;12.10;4.70;;;18.90;75.20;;;;;;4822685;29;20046;-86
2023/10/20 09:00:31;;;;;;;12.75;4.68;;;18.90;74.80;;;;;;4818600;29;20050;-87
2023/10/20 09:02:59;;;;;;;12.20;5.25;;;19.00;74.80;;;;;;4822782;29;20066;-87
2023/10/20 09:05:26;;;;;;;11.57;4.87;;;19.00;74.70;;;;;;4807484;29;20050;-87
2023/10/20 09:07:55;;;;;;;12.07;5.75;;;19.00;74.80;;;;;;4806925;29;20054;-87
2023/10/20 09:10:24;;;;;;;13.55;4.93;;;19.10;75.30;;;;;;4819211;29;20059;-87
2023/10/20 09:12:51;;;;;;;12.13;4.82;;;19.10;74.80;;;;;;4826100;29;20137;-87
2023/10/20 09:15:18;;;;;;;12.18;4.03;;;19.20;74.60;;;;;;4811172;29;20054;-87
2023/10/20 09:17:53;;;;;;;11.33;3.80;;;19.20;74.30;;;;;;4825388;29;20050;-87
2023/10/20 09:20:20;;;;;;;11.20;3.72;;;19.10;74.20;;;;;;4822295;29;20051;-87
2023/10/20 09:22:49;;;;;;;13.75;4.00;;;19.10;74.60;;;;;;4817181;29;20581;-87
2023/10/20 09:25:16;;;;;;;9.95;3.95;;;19.10;74.20;;;;;;4806229;29;20099;-87
2023/10/20 09:27:44;;;;;;;12.55;4.20;;;19.10;74.30;;;;;;4825101;29;20505;-87
2023/10/20 09:30:11;;;;;;;11.23;4.23;;;19.10;74.50;;;;;;4810821;29;20057;-87
2023/10/20 09:32:38;;;;;;;13.77;4.20;;;19.20;74.40;;;;;;4825684;29;20057;-87
2023/10/20 09:35:06;;;;;;;13.50;4.68;;;19.20;74.80;;;;;;4824994;29;20054;-87
2023/10/20 09:37:38;;;;;;;15.75;5.32;;;19.30;74.10;;;;;;4825364;29;20090;-87
2023/10/20 09:40:08;;;;;;;16.92;5.07;;;19.30;73.90;;;;;;4825214;29;20077;-87
2023/10/20 09:42:57;;;;;;;12.93;4.83;;;19.30;73.90;;;;;;4810887;29;20042;-87
2023/10/20 09:45:37;;;;;;;13.77;4.47;;;19.20;74.20;;;;;;4810513;29;20046;-87
2023/10/20 09:48:10;;;;;;;14.05;4.32;;;19.20;74.00;;;;;;4825368;29;20057;-87
2023/10/20 09:50:38;;;;;;;16.08;4.53;;;19.10;74.00;;;;;;4825406;29;20061;-87
2023/10/20 09:53:06;;;;;;;13.65;4.60;;;19.10;74.40;;;;;;4810345;29;20133;-87
2023/10/20 09:55:33;;;;;;;13.40;4.47;;;19.10;74.40;;;;;;4825206;29;20103;-87
2023/10/20 09:58:00;;;;;;;11.15;3.95;;;19.10;74.40;;;;;;4820547;29;20083;-87
2023/10/20 10:00:30;;;;;;;8.73;3.10;;;19.10;74.00;;;;;;4824979;29;20133;-87
2023/10/20 10:02:59;;;;;;;15.07;4.10;;;19.20;73.70;;;;;;4822402;29;20046;-87
2023/10/20 10:05:29;;;;;;;10.43;3.60;;;19.20;73.90;;;;;;4824909;29;20050;-87
2023/10/20 10:08:08;;;;;;;12.23;4.10;;;19.20;74.20;;;;;;4825048;29;20051;-87
2023/10/20 10:10:38;;;;;;;10.82;4.00;;;19.20;74.40;;;;;;4809810;29;20050;-86
2023/10/20 10:13:06;;;;;;;9.82;3.40;;;19.30;75.00;;;;;;4809859;29;20186;-87
2023/10/20 10:15:41;;;;;;;10.93;3.78;;;19.30;74.60;;;;;;4824014;29;20054;-87
2023/10/20 10:18:13;;;;;;;10.85;3.50;;;19.30;74.10;;;;;;4824302;29;20493;-87
2023/10/20 10:20:50;;;;;;;12.63;3.90;;;19.30;74.40;;;;;;4825097;29;20549;-87
2023/10/20 10:23:27;;;;;;;13.68;3.90;;;19.40;74.30;;;;;;4805147;29;20046;-87
2023/10/20 10:25:54;;;;;;;10.70;3.42;;;19.50;73.30;;;;;;4816942;29;20056;-87
2023/10/20 10:28:22;;;;;;;15.05;4.13;;;19.50;72.60;;;;;;4810380;29;20054;-87
2023/10/20 10:31:09;;;;;;;14.18;4.18;;;19.50;72.70;;;;;;4825214;29;20134;-87
2023/10/20 10:33:36;;;;;;;11.83;3.87;;;19.60;73.00;;;;;;4814823;29;20047;-87
2023/10/20 10:36:09;;;;;;;12.80;3.95;;;19.60;73.30;;;;;;4816111;29;20136;-87
2023/10/20 10:38:44;;;;;;;16.27;4.50;;;19.60;72.90;;;;;;4824486;29;20054;-87
2023/10/20 10:41:11;;;;;;;10.00;3.75;;;19.60;73.30;;;;;;4815229;29;20413;-87
2023/10/20 10:43:38;;;;;;;10.63;3.65;;;19.60;73.20;;;;;;4804810;29;20558;-87
2023/10/20 10:46:06;;;;;;;8.20;2.77;;;19.70;73.40;;;;;;4824388;29;20609;-88
2023/10/20 10:48:35;;;;;;;5.90;1.83;;;19.70;73.20;;;;;;4809528;29;20597;-87
2023/10/20 10:51:05;;;;;;;12.23;3.58;;;19.80;72.70;;;;;;4824510;29;20047;-88
2023/10/20 10:53:32;;;;;;;13.82;3.80;;;19.90;72.90;;;;;;4824063;29;20070;-87
2023/10/20 10:56:00;;;;;;;12.15;3.72;;;19.90;72.80;;;;;;4809075;29;20102;-87
2023/10/20 10:58:27;;;;;;;15.77;4.77;;;19.90;72.60;;;;;;4812858;29;20455;-87
2023/10/20 11:00:54;;;;;;;3.40;3.05;;;20.00;71.80;;;;;;4809485;29;20038;-87
2023/10/20 11:03:22;;;;;;;12.85;5.70;;;20.00;71.60;;;;;;4824240;29;20046;-87
2023/10/20 11:05:52;;;;;;;13.73;5.90;;;20.10;71.80;;;;;;4823694;29;20183;-87
2023/10/20 11:08:19;;;;;;;15.35;3.85;;;20.20;72.10;;;;;;4809120;29;20054;-87
2023/10/20 11:10:48;;;;;;;15.97;4.03;;;20.40;71.20;;;;;;4824335;29;20050;-87
2023/10/20 11:13:20;;;;;;;14.25;3.78;;;20.50;70.60;;;;;;4824322;29;20053;-88
2023/10/20 11:15:49;;;;;;;15.43;3.88;;;20.60;69.90;;;;;;4809121;29;20150;-87
2023/10/20 11:18:18;;;;;;;14.18;4.50;;;20.70;69.80;;;;;;4808914;29;20052;-87
2023/10/20 11:20:47;;;;;;;15.32;4.95;;;20.70;69.60;;;;;;4809235;29;20050;-88
2023/10/20 11:23:19;;;;;;;11.87;3.80;;;20.70;70.40;;;;;;4808932;29;20501;-87
2023/10/20 11:25:48;;;;;;;13.65;4.43;;;20.60;69.00;;;;;;4823888;29;20050;-87
2023/10/20 11:28:16;;;;;;;13.77;4.65;;;20.60;69.50;;;;;;4808721;29;20069;-87
2023/10/20 11:30:45;;;;;;;10.25;3.60;;;20.60;69.50;;;;;;4823774;29;20054;-87
2023/10/20 11:33:15;;;;;;;14.77;4.13;;;20.50;69.40;;;;;;4823761;29;20069;-87
2023/10/20 11:35:45;;;;;;;13.47;3.43;;;20.60;70.10;;;;;;4823378;29;20095;-87
2023/10/20 11:38:16;;;;;;;15.90;3.80;;;20.50;69.30;;;;;;4809013;29;20046;-87
2023/10/20 11:40:47;;;;;;;12.50;3.40;;;20.50;69.50;;;;;;4808604;29;20042;-87
2023/10/20 11:43:15;;;;;;;11.55;3.40;;;20.60;70.00;;;;;;4819999;29;20459;-87
2023/10/20 11:45:42;;;;;;;9.52;3.30;;;20.50;70.00;;;;;;4821015;29;20081;-87
2023/10/20 11:48:09;;;;;;;9.37;3.37;;;20.50;69.40;;;;;;4823350;29;20055;-87
2023/10/20 11:50:37;;;;;;;13.38;4.10;;;20.40;69.30;;;;;;4823464;29;20406;-87
2023/10/20 11:53:05;;;;;;;12.13;4.50;;;20.40;69.50;;;;;;4808085;29;20050;-88
2023/10/20 11:55:32;;;;;;;12.15;3.30;;;20.50;70.20;;;;;;4823583;29;20050;-87
2023/10/20 11:58:03;;;;;;;15.63;3.70;;;20.50;69.90;;;;;;4807975;29;20120;-87
2023/10/20 12:00:30;;;;;;;18.90;3.90;;;20.60;68.50;;;;;;4823383;29;20133;-87
2023/10/20 12:02:58;;;;;;;12.73;3.38;;;20.60;69.30;;;;;;4807872;29;20038;-87
2023/10/20 12:05:25;;;;;;;15.55;3.80;;;20.70;68.90;;;;;;4824376;29;20520;-87
2023/10/20 12:07:53;;;;;;;12.02;3.90;;;20.80;69.20;;;;;;4823404;29;20053;-87
2023/10/20 12:10:23;;;;;;;15.43;3.95;;;20.80;69.10;;;;;;4823034;29;20057;-87
2023/10/20 12:12:51;;;;;;;12.37;3.70;;;20.90;68.40;;;;;;4823174;29;20054;-87
2023/10/20 12:15:18;;;;;;;19.77;3.95;;;21.00;69.70;;;;;;4823266;29;20129;-88
2023/10/20 12:17:45;;;;;;;18.00;4.22;;;21.00;68.90;;;;;;4823297;29;20126;-87
2023/10/20 12:20:13;;;;;;;12.50;3.65;;;21.10;68.90;;;;;;4811761;29;20053;-87
2023/10/20 12:22:40;;;;;;;16.05;4.90;;;21.10;67.80;;;;;;4823110;29;20523;-87
2023/10/20 12:25:08;;;;;;;19.63;4.47;;;21.10;67.10;;;;;;4807233;29;20046;-87
2023/10/20 12:27:35;;;;;;;13.15;4.25;;;21.10;67.20;;;;;;4822897;29;20409;-88
2023/10/20 12:30:03;;;;;;;17.33;4.75;;;21.10;67.00;;;;;;4823269;29;20050;-88
2023/10/20 12:32:31;;;;;;;16.88;4.72;;;21.10;67.40;;;;;;4823013;29;20144;-88
2023/10/20 12:34:58;;;;;;;15.13;4.40;;;21.10;66.90;;;;;;4821064;29;20042;-87
2023/10/20 12:37:25;;;;;;;13.40;3.47;;;21.10;66.70;;;;;;4822731;29;20521;-87
2023/10/20 12:39:52;;;;;;;14.20;4.53;;;21.10;66.10;;;;;;4807505;29;20379;-87
2023/10/20 12:42:19;;;;;;;19.95;4.63;;;21.00;66.30;;;;;;4822809;29;20043;-87
2023/10/20 12:44:46;;;;;;;12.63;3.90;;;21.10;67.20;;;;;;4818041;29;20049;-89
2023/10/20 12:47:15;;;;;;;14.98;4.43;;;21.10;66.60;;;;;;4821516;29;20404;-88
2023/10/20 12:49:42;;;;;;;12.23;3.40;;;21.10;66.60;;;;;;4811389;29;20378;-88
2023/10/20 12:52:09;;;;;;;23.90;12.73;;;21.20;66.30;;;;;;4806980;29;20083;-88
2023/10/20 12:54:36;;;;;;;15.57;4.28;;;21.10;66.80;;;;;;4806482;29;20049;-88
2023/10/20 12:57:03;;;;;;;19.58;3.85;;;21.10;66.20;;;;;;4807167;29;20074;-88
2023/10/20 12:59:30;;;;;;;16.02;3.92;;;21.10;65.70;;;;;;4807001;29;20141;-89
2023/10/20 13:01:57;;;;;;;15.10;3.97;;;21.10;66.10;;;;;;4822607;29;20052;-88
2023/10/20 13:04:25;;;;;;;14.30;3.50;;;21.10;66.30;;;;;;4822531;29;20345;-86
2023/10/20 13:06:52;;;;;;;20.15;4.28;;;21.00;65.70;;;;;;4822016;29;20145;-87
2023/10/20 13:09:27;;;;;;;16.50;3.85;;;21.00;66.30;;;;;;4822110;29;20056;-87
2023/10/20 13:11:58;;;;;;;12.68;3.40;;;21.00;65.80;;;;;;4822112;29;20046;-86
2023/10/20 13:14:29;;;;;;;16.37;4.53;;;21.00;65.90;;;;;;4821941;29;20046;-87
2023/10/20 13:16:56;;;;;;;13.38;3.60;;;21.10;65.90;;;;;;4806721;29;20051;-87
2023/10/20 13:19:24;;;;;;;17.10;4.10;;;21.00;65.30;;;;;;4811052;29;20549;-87